Time;durP1;ratioP1;P1;durP2;ratioP2;P2;SDS_P1;SDS_P2;PMS_P1;PMS_P2;Temp;Humidity;BMP_temperature;BMP_pressure;BME280_temperature;BME280_humidity;BME280_pressure;Samples;Min_cycle;Max_cycle;Signal;HPM_P1;HPM_P2
2021/12/14 00:00:45;;;;;;;24.77;8.13;;;9.00;99.90;;;;;;6191088;23;20016;-91
2021/12/14 00:03:16;;;;;;;24.80;8.30;;;9.00;99.90;;;;;;6190023;23;20055;-92
2021/12/14 00:05:44;;;;;;;22.33;7.93;;;9.00;99.90;;;;;;6190371;23;20012;-90
2021/12/14 00:08:16;;;;;;;22.90;8.20;;;9.00;99.90;;;;;;6189939;23;20055;-91
2021/12/14 00:11:07;;;;;;;18.77;8.45;;;9.00;99.90;;;;;;6190547;23;20052;-92
2021/12/14 00:16:09;;;;;;;17.02;7.60;;;9.00;99.90;;;;;;6216717;23;20017;-91
2021/12/14 00:18:37;;;;;;;15.98;7.50;;;9.00;99.90;;;;;;6190105;23;20021;-90
2021/12/14 00:21:12;;;;;;;23.30;9.25;;;9.00;99.90;;;;;;6216345;23;20079;-93
2021/12/14 00:26:25;;;;;;;22.85;7.85;;;9.00;99.90;;;;;;6191165;23;20044;-91
2021/12/14 00:28:52;;;;;;;20.25;5.55;;;9.00;99.90;;;;;;6189703;23;20070;-92
2021/12/14 00:31:20;;;;;;;18.83;7.18;;;9.00;99.90;;;;;;6189840;23;20031;-91
2021/12/14 00:33:51;;;;;;;18.67;6.43;;;9.00;99.90;;;;;;6191084;23;20020;-91
2021/12/14 00:36:19;;;;;;;18.15;6.45;;;9.00;99.90;;;;;;6190409;23;20021;-91
2021/12/14 00:38:49;;;;;;;19.67;6.00;;;9.00;99.90;;;;;;6165602;23;20021;-90
2021/12/14 00:41:21;;;;;;;19.42;6.03;;;9.00;99.90;;;;;;6165350;23;20508;-90
2021/12/14 00:43:48;;;;;;;17.73;6.25;;;9.00;99.90;;;;;;6164839;23;20022;-91
2021/12/14 00:46:17;;;;;;;22.52;5.32;;;9.00;99.90;;;;;;6165370;23;20023;-91
2021/12/14 00:48:45;;;;;;;13.93;6.03;;;9.00;99.90;;;;;;6165361;23;20047;-91
2021/12/14 00:51:13;;;;;;;14.70;6.53;;;9.00;99.90;;;;;;6190347;23;20048;-92
2021/12/14 00:53:41;;;;;;;23.75;7.00;;;9.00;99.90;;;;;;6165449;23;20024;-91
2021/12/14 00:56:13;;;;;;;17.35;5.50;;;9.00;99.90;;;;;;6165294;23;20387;-92
2021/12/14 00:58:42;;;;;;;14.52;5.60;;;9.00;99.90;;;;;;6190141;23;20107;-92
2021/12/14 01:01:15;;;;;;;13.85;5.22;;;9.00;99.90;;;;;;6165533;23;20017;-91
2021/12/14 01:03:48;;;;;;;19.07;5.60;;;9.00;99.90;;;;;;6166312;23;20022;-91
2021/12/14 01:06:15;;;;;;;10.15;4.45;;;9.00;99.90;;;;;;6190238;23;20261;-91
2021/12/14 01:08:46;;;;;;;21.60;5.13;;;9.00;99.90;;;;;;6216003;23;20042;-91
2021/12/14 01:11:25;;;;;;;14.52;4.55;;;9.00;99.90;;;;;;6164992;23;20083;-92
2021/12/14 01:14:04;;;;;;;21.10;5.47;;;9.00;99.90;;;;;;6165632;23;20024;-91
2021/12/14 01:16:54;;;;;;;15.38;5.88;;;9.00;99.90;;;;;;6191631;23;20104;-91
2021/12/14 01:19:27;;;;;;;19.60;4.53;;;9.00;99.90;;;;;;6168156;23;20016;-90
2021/12/14 01:22:47;;;;;;;16.80;4.43;;;9.00;99.90;;;;;;6218560;23;20023;-91
2021/12/14 01:25:01;;;;;;;17.65;5.70;;;9.00;99.90;;;;;;6197594;23;20789;-92
2021/12/14 01:27:40;;;;;;;20.35;5.20;;;9.00;99.90;;;;;;6168330;23;20401;-92
2021/12/14 01:30:45;;;;;;;16.48;5.65;;;9.00;99.90;;;;;;6191737;23;20104;-91
2021/12/14 01:33:14;;;;;;;16.00;5.80;;;9.00;99.90;;;;;;6167840;23;20027;-91
2021/12/14 01:35:45;;;;;;;16.33;4.55;;;9.00;99.90;;;;;;6192266;23;20020;-91
2021/12/14 01:38:32;;;;;;;22.67;5.07;;;9.10;99.90;;;;;;6167255;23;20021;-91
2021/12/14 01:41:09;;;;;;;16.27;4.45;;;9.10;99.90;;;;;;6167153;23;20079;-91
2021/12/14 01:43:49;;;;;;;13.05;4.20;;;9.00;99.90;;;;;;6191818;23;20077;-90
2021/12/14 01:46:31;;;;;;;9.65;4.03;;;9.10;99.90;;;;;;6168599;23;20456;-91
2021/12/14 01:49:17;;;;;;;9.63;5.07;;;9.00;99.90;;;;;;6170847;23;20518;-91
2021/12/14 01:52:12;;;;;;;11.93;5.45;;;9.10;99.90;;;;;;6170870;23;20103;-91
2021/12/14 01:54:47;;;;;;;15.20;4.70;;;9.00;99.90;;;;;;6218629;23;20020;-91
2021/12/14 01:57:18;;;;;;;12.43;4.68;;;9.00;99.90;;;;;;6191412;23;20025;-91
2021/12/14 01:59:49;;;;;;;18.52;5.38;;;9.00;99.90;;;;;;6167026;23;20096;-91
2021/12/14 02:02:29;;;;;;;21.40;5.88;;;9.10;99.90;;;;;;6167736;23;20012;-90
2021/12/14 02:05:01;;;;;;;18.65;5.88;;;9.00;99.90;;;;;;6166652;23;20024;-92
2021/12/14 02:07:32;;;;;;;16.83;5.50;;;9.10;99.90;;;;;;6166897;23;20506;-92
2021/12/14 02:10:08;;;;;;;15.27;5.38;;;9.00;99.90;;;;;;6166416;23;20503;-92
2021/12/14 02:12:36;;;;;;;19.92;5.70;;;9.10;99.90;;;;;;6217863;23;20027;-91
2021/12/14 02:15:15;;;;;;;27.35;5.13;;;9.00;99.90;;;;;;6166728;23;20024;-91
2021/12/14 02:17:46;;;;;;;24.08;5.57;;;9.00;99.90;;;;;;6191285;23;20025;-91
2021/12/14 02:20:20;;;;;;;13.45;5.05;;;9.10;99.90;;;;;;6192029;23;20017;-93
2021/12/14 02:22:49;;;;;;;20.60;5.63;;;9.00;99.90;;;;;;6167007;23;20020;-91
2021/12/14 02:25:17;;;;;;;13.90;6.38;;;9.00;99.90;;;;;;6166474;23;20108;-92
2021/12/14 02:27:47;;;;;;;16.58;4.78;;;9.00;99.90;;;;;;6166132;23;20020;-91
2021/12/14 02:30:20;;;;;;;15.45;5.97;;;9.00;99.90;;;;;;6217912;23;20091;-91
2021/12/14 02:32:48;;;;;;;14.75;5.93;;;9.00;99.90;;;;;;6166143;23;20031;-92
2021/12/14 02:35:19;;;;;;;14.35;5.63;;;9.00;99.90;;;;;;6166193;23;20437;-91
2021/12/14 02:38:00;;;;;;;12.95;5.72;;;9.00;99.90;;;;;;6166098;23;20028;-91
2021/12/14 02:40:54;;;;;;;17.70;5.88;;;9.00;99.90;;;;;;6166903;23;20067;-91
2021/12/14 02:43:50;;;;;;;21.75;6.22;;;9.00;99.90;;;;;;6192075;23;20017;-92
2021/12/14 02:46:29;;;;;;;13.95;5.57;;;9.00;99.90;;;;;;6191527;23;20099;-92
2021/12/14 02:49:00;;;;;;;19.52;5.68;;;9.00;99.90;;;;;;6166363;23;20020;-91
2021/12/14 02:51:35;;;;;;;20.27;6.45;;;9.00;99.90;;;;;;6191037;23;20020;-91
2021/12/14 02:54:13;;;;;;;20.27;7.32;;;9.00;99.90;;;;;;6166817;23;20042;-89
2021/12/14 02:56:43;;;;;;;15.73;5.47;;;9.00;99.90;;;;;;6165974;23;20028;-91
2021/12/14 02:59:17;;;;;;;15.52;5.85;;;9.00;99.90;;;;;;6191198;23;20024;-92
2021/12/14 03:01:47;;;;;;;13.57;6.22;;;9.00;99.90;;;;;;6190661;23;20016;-90
2021/12/14 03:04:18;;;;;;;20.10;5.65;;;9.00;99.90;;;;;;6167586;23;20136;-92
2021/12/14 03:06:55;;;;;;;24.65;6.72;;;9.00;99.90;;;;;;6190462;23;20023;-91
2021/12/14 03:12:07;;;;;;;19.98;6.35;;;9.00;99.90;;;;;;6217130;23;20496;-91
2021/12/14 03:14:36;;;;;;;20.50;7.38;;;9.00;99.90;;;;;;6190732;23;20429;-91
2021/12/14 03:17:04;;;;;;;18.75;5.50;;;9.00;99.90;;;;;;6191343;23;20096;-91
2021/12/14 03:19:32;;;;;;;25.40;6.82;;;9.00;99.90;;;;;;6166000;23;20091;-91
2021/12/14 03:22:17;;;;;;;19.30;6.63;;;9.00;99.90;;;;;;6166208;23;20066;-92
2021/12/14 03:24:44;;;;;;;15.80;6.32;;;9.00;99.90;;;;;;6191126;23;20016;-91
2021/12/14 03:27:12;;;;;;;18.38;5.25;;;9.00;99.90;;;;;;6216861;23;20013;-91
2021/12/14 03:29:39;;;;;;;13.20;5.40;;;9.00;99.90;;;;;;6166422;23;20020;-92
2021/12/14 03:32:06;;;;;;;13.45;5.75;;;9.00;99.90;;;;;;6165753;23;20107;-92
2021/12/14 03:34:38;;;;;;;13.00;5.35;;;9.00;99.90;;;;;;6165758;23;20024;-91
2021/12/14 03:37:20;;;;;;;10.35;5.18;;;9.00;99.90;;;;;;6166055;23;20456;-91
2021/12/14 03:39:57;;;;;;;15.63;5.95;;;9.00;99.90;;;;;;6166550;23;20044;-91
2021/12/14 03:42:33;;;;;;;14.90;5.63;;;9.00;99.90;;;;;;6166853;23;20384;-90
2021/12/14 03:45:10;;;;;;;15.38;7.53;;;9.00;99.90;;;;;;6165691;23;20048;-91
2021/12/14 03:47:48;;;;;;;21.13;5.55;;;9.00;99.90;;;;;;6165672;23;20024;-92
2021/12/14 03:50:22;;;;;;;11.20;6.15;;;9.00;99.90;;;;;;6165657;23;20055;-91
2021/12/14 03:52:50;;;;;;;15.10;5.35;;;9.00;99.90;;;;;;6165805;23;20657;-91
2021/12/14 03:55:20;;;;;;;16.20;5.03;;;9.10;99.90;;;;;;6165836;23;20025;-92
2021/12/14 03:57:48;;;;;;;19.30;6.18;;;9.00;99.90;;;;;;6165856;23;20025;-92
2021/12/14 04:00:24;;;;;;;17.55;5.50;;;9.00;99.90;;;;;;6166355;23;20016;-92
2021/12/14 04:02:53;;;;;;;;;;;9.00;99.90;;;;;;6191499;23;20025;-91
2021/12/14 04:05:35;;;;;;;22.33;6.13;;;9.00;99.90;;;;;;6190366;23;19920;-91
2021/12/14 04:08:05;;;;;;;16.55;4.45;;;9.00;99.90;;;;;;6191245;23;20083;-91
2021/12/14 04:10:34;;;;;;;15.85;5.03;;;9.00;99.90;;;;;;6165912;23;20024;-91
2021/12/14 04:13:02;;;;;;;10.50;5.00;;;9.10;99.90;;;;;;6165466;23;20036;-91
2021/12/14 04:15:30;;;;;;;16.27;5.72;;;9.10;99.90;;;;;;6190180;23;20341;-92
2021/12/14 04:17:57;;;;;;;24.05;5.45;;;9.00;99.90;;;;;;6165715;23;20471;-91
2021/12/14 04:20:32;;;;;;;14.85;4.93;;;9.00;99.90;;;;;;6190311;23;20440;-91
2021/12/14 04:23:03;;;;;;;17.08;6.00;;;9.00;99.90;;;;;;6166283;23;20017;-92
2021/12/14 04:25:34;;;;;;;24.15;5.72;;;9.10;99.90;;;;;;6190325;23;20020;-91
2021/12/14 04:28:06;;;;;;;15.25;4.53;;;9.00;99.90;;;;;;6190179;23;20039;-91
2021/12/14 04:30:34;;;;;;;18.52;6.10;;;9.00;99.90;;;;;;6165144;23;20111;-92
2021/12/14 04:33:06;;;;;;;17.20;5.82;;;9.10;99.90;;;;;;6189873;23;20392;-91
2021/12/14 04:35:37;;;;;;;19.20;6.68;;;9.00;99.90;;;;;;6165741;23;20441;-90
2021/12/14 04:38:21;;;;;;;16.45;6.50;;;9.00;99.90;;;;;;6190064;23;20020;-91
2021/12/14 04:52:21;;;;;;;18.65;9.25;;;9.00;99.90;;;;;;6192392;23;20020;-92
2021/12/14 04:54:59;;;;;;;24.63;8.07;;;9.00;99.90;;;;;;6167952;23;20116;-92
2021/12/14 04:57:26;;;;;;;24.02;8.48;;;9.00;99.90;;;;;;6167817;23;20334;-91
2021/12/14 04:59:56;;;;;;;23.55;7.78;;;9.00;99.90;;;;;;6167995;23;20027;-92
2021/12/14 05:02:30;;;;;;;25.30;8.80;;;9.00;99.90;;;;;;6192291;23;20108;-92
2021/12/14 05:05:15;;;;;;;18.70;7.38;;;9.10;99.90;;;;;;6192231;23;20016;-91
2021/12/14 05:11:00;;;;;;;18.85;7.43;;;9.00;99.90;;;;;;6192239;23;19916;-92
2021/12/14 05:13:50;;;;;;;19.35;8.38;;;9.00;99.90;;;;;;6192890;23;20024;-92
2021/12/14 05:16:57;;;;;;;28.13;7.95;;;9.00;99.90;;;;;;6171312;23;20104;-94
2021/12/14 16:07:46;;;;;;;20.92;4.03;;;9.60;99.90;;;;;;6246631;22;20047;-93
2021/12/14 16:10:21;;;;;;;6.80;4.10;;;9.60;99.90;;;;;;6190898;23;20042;-93
2021/12/14 16:16:01;;;;;;;19.27;4.15;;;9.60;99.90;;;;;;6217619;23;20063;-94
2021/12/14 16:18:58;;;;;;;21.25;4.90;;;9.60;99.90;;;;;;6169396;23;20016;-94
2021/12/14 16:22:19;;;;;;;19.40;4.82;;;9.60;99.90;;;;;;6229580;22;20452;-93
2021/12/14 16:29:16;;;;;;;10.80;4.03;;;9.60;99.90;;;;;;6219458;23;20004;-92
2021/12/14 16:31:46;;;;;;;18.85;5.30;;;9.60;99.90;;;;;;6197257;23;20519;-92
2021/12/14 16:34:17;;;;;;;8.88;4.22;;;9.60;99.90;;;;;;6217557;23;20070;-92
2021/12/14 16:36:58;;;;;;;17.13;5.05;;;9.60;99.90;;;;;;6218890;23;20020;-94
2021/12/14 16:40:15;;;;;;;10.85;4.43;;;9.60;99.90;;;;;;6199912;23;20035;-91
2021/12/14 16:42:48;;;;;;;19.63;5.03;;;9.60;99.90;;;;;;6191804;23;20048;-92
2021/12/14 16:45:20;;;;;;;20.58;4.55;;;9.60;99.90;;;;;;6166121;23;20326;-91
2021/12/14 16:48:03;;;;;;;22.00;5.72;;;9.60;99.90;;;;;;6168095;23;20017;-93
2021/12/14 16:51:04;;;;;;;22.15;4.70;;;9.60;99.90;;;;;;6196452;23;20025;-93
2021/12/14 16:53:58;;;;;;;14.65;4.82;;;9.60;99.90;;;;;;6169394;23;20021;-91
2021/12/14 16:56:29;;;;;;;11.38;4.40;;;9.60;99.90;;;;;;6168730;23;20020;-92
2021/12/14 16:59:20;;;;;;;;;;;;;;;;;;;;;
2021/12/14 17:02:10;;;;;;;19.88;4.93;;;9.60;99.90;;;;;;6213683;23;20434;-91
2021/12/14 17:50:30;;;;;;;25.88;5.57;;;9.60;99.90;;;;;;6217716;23;20043;-92
2021/12/14 17:57:58;;;;;;;12.13;4.93;;;9.60;99.90;;;;;;6187088;23;20092;-92
2021/12/14 18:04:14;;;;;;;18.70;5.05;;;9.50;99.90;;;;;;6234960;22;20078;-93
2021/12/14 18:55:26;;;;;;;;;;;;;;;;;;;;;
2021/12/14 19:19:05;;;;;;;21.13;5.57;;;9.50;99.90;;;;;;6174279;23;20031;-95
2021/12/14 19:26:52;;;;;;;17.02;5.20;;;9.50;99.90;;;;;;6157890;23;20013;-92
2021/12/14 19:29:56;;;;;;;13.48;4.88;;;9.50;99.90;;;;;;6097565;23;20366;-94
2021/12/14 19:32:51;;;;;;;12.77;4.93;;;9.50;99.90;;;;;;6156552;23;20025;-92
2021/12/14 19:47:09;;;;;;;33.13;7.05;;;9.60;99.90;;;;;;6213107;23;20032;-91
2021/12/14 19:57:37;;;;;;;15.38;4.50;;;9.50;99.90;;;;;;6010205;23;20405;-90
2021/12/14 20:06:40;;;;;;;20.80;4.88;;;9.50;99.90;;;;;;6218721;22;20039;-92
2021/12/14 20:15:53;;;;;;;16.88;4.72;;;9.50;99.90;;;;;;6216574;23;20086;-90
2021/12/14 20:18:34;;;;;;;22.10;5.20;;;9.50;99.90;;;;;;6190564;23;20017;-92
2021/12/14 20:21:13;;;;;;;25.33;5.65;;;9.50;99.90;;;;;;6190721;23;20016;-90
2021/12/14 20:24:31;;;;;;;9.93;4.03;;;9.50;99.90;;;;;;6190173;23;20016;-92
2021/12/14 20:27:41;;;;;;;19.55;4.75;;;9.50;99.90;;;;;;6198970;23;20361;-88
2021/12/14 20:30:18;;;;;;;18.60;5.25;;;9.60;99.90;;;;;;6190612;23;20016;-91
2021/12/14 20:33:32;;;;;;;17.13;4.32;;;9.50;99.90;;;;;;6166347;23;20031;-92
2021/12/14 20:36:36;;;;;;;24.80;5.65;;;9.50;99.90;;;;;;6043731;23;20023;-94
2021/12/14 20:39:25;;;;;;;17.98;4.72;;;9.50;99.90;;;;;;6166800;23;20020;-93
2021/12/14 20:48:37;;;;;;;15.10;5.47;;;9.50;99.90;;;;;;6190436;23;20048;-95
2021/12/14 20:51:23;;;;;;;21.85;4.90;;;9.50;99.90;;;;;;6190320;23;20027;-93
2021/12/14 20:54:57;;;;;;;16.60;4.30;;;9.50;99.90;;;;;;6193111;23;20020;-92
2021/12/14 20:58:32;;;;;;;25.17;6.30;;;9.50;99.90;;;;;;6217414;23;20038;-94
2021/12/14 21:05:56;;;;;;;17.43;3.97;;;9.60;99.90;;;;;;6217181;23;20028;-94
2021/12/14 21:08:33;;;;;;;21.25;5.75;;;9.50;99.90;;;;;;6191602;23;20254;-93
2021/12/14 21:11:05;;;;;;;15.95;4.80;;;9.50;99.90;;;;;;6217188;23;20020;-92
2021/12/14 21:13:37;;;;;;;17.85;4.53;;;9.50;99.90;;;;;;6190145;23;20404;-92
2021/12/14 21:16:23;;;;;;;13.80;4.38;;;9.50;99.90;;;;;;6216557;23;20070;-91
2021/12/14 21:18:51;;;;;;;15.85;6.50;;;9.50;99.90;;;;;;6189733;23;20103;-92
2021/12/14 21:21:30;;;;;;;16.05;4.53;;;9.50;99.90;;;;;;6190481;23;20019;-94
2021/12/14 21:24:30;;;;;;;20.23;5.53;;;9.50;99.90;;;;;;6167348;23;20031;-93
2021/12/14 21:27:26;;;;;;;19.92;4.00;;;9.50;99.90;;;;;;6191123;23;20025;-93
2021/12/14 22:27:23;;;;;;;17.17;5.30;;;9.50;99.90;;;;;;6242046;22;20051;-94
2021/12/14 22:45:21;;;;;;;;;;;;;;;;;;;;;
2021/12/14 22:48:42;;;;;;;14.23;4.25;;;9.50;99.90;;;;;;6124678;23;20088;-93
2021/12/14 22:51:59;;;;;;;35.60;6.35;;;9.60;99.90;;;;;;6174456;23;20016;-93
2021/12/14 22:55:42;;;;;;;15.25;4.88;;;9.60;99.90;;;;;;6155573;23;20020;-94
2021/12/14 22:59:13;;;;;;;28.35;6.32;;;9.60;99.90;;;;;;6162605;23;20016;-94
2021/12/14 23:03:10;;;;;;;22.70;6.13;;;9.60;99.90;;;;;;6081700;23;20015;-94
2021/12/14 23:06:59;;;;;;;29.20;5.80;;;9.60;99.90;;;;;;6062791;23;20470;-93
2021/12/14 23:10:48;;;;;;;;;;;;;;;;;;;;;
2021/12/14 23:13:57;;;;;;;16.52;5.45;;;9.60;99.90;;;;;;6067954;23;20046;-94
2021/12/14 23:18:04;;;;;;;;;;;;;;;;;;;;;
2021/12/14 23:21:39;;;;;;;22.98;5.07;;;9.60;99.90;;;;;;6217551;23;20092;-93
2021/12/14 23:25:06;;;;;;;15.38;4.32;;;9.70;99.90;;;;;;6170887;23;20016;-93
2021/12/14 23:28:16;;;;;;;20.92;4.82;;;9.60;99.90;;;;;;6171506;23;20020;-95
2021/12/14 23:31:50;;;;;;;;;;;;;;;;;;;;;
2021/12/14 23:35:12;;;;;;;20.42;4.82;;;9.60;99.90;;;;;;6191674;23;20016;-93
2021/12/14 23:38:25;;;;;;;12.55;4.32;;;9.60;99.90;;;;;;6191964;23;20111;-94
2021/12/14 23:41:50;;;;;;;23.48;4.90;;;9.60;99.90;;;;;;6163023;23;20042;-94
2021/12/14 23:45:06;;;;;;;;;;;9.60;99.90;;;;;;6167787;23;20021;-92
2021/12/14 23:48:23;;;;;;;21.50;4.82;;;9.60;99.90;;;;;;6169407;23;19923;-93
2021/12/14 23:51:31;;;;;;;18.92;5.10;;;9.60;99.90;;;;;;6168545;23;20028;-93
2021/12/14 23:55:12;;;;;;;11.43;3.72;;;9.60;99.90;;;;;;6196819;23;20364;-93
2021/12/14 23:58:21;;;;;;;30.20;6.20;;;9.60;99.90;;;;;;6172512;23;20025;-93
